DOC95 ENZV-ZZZZ
Flight info
| Callsign | DOC95 |
|---|---|
| Flight time | N/A |
| Altitude | 3000 |
| Route | HEMS FLEKKEFJORD |
| Aircraft | EC45/L-V/C |
Departure
| Time | 2026-04-23 18:01 |
|---|---|
| Airport | Stavanger Airport, Sola (ENZV) |
Arrival
| Time | N/A |
|---|---|
| Airport | ZZZZ |
| Time | Latitude | Longitude | Altitude | Speed | Heading |
|---|---|---|---|---|---|
| 2026-04-23 17:41 | 58.89338 | 5.63289 | 19 ft | 0 kts | 183° |
| 2026-04-23 17:56 | 58.89323 | 5.63346 | 35 ft | 8 kts | 141° |
| 2026-04-23 17:56 | 58.89253 | 5.63396 | 41 ft | 14 kts | 186° |
| 2026-04-23 17:57 | 58.89159 | 5.63397 | 35 ft | 12 kts | 178° |
| 2026-04-23 17:57 | 58.89027 | 5.63405 | 43 ft | 25 kts | 183° |
| 2026-04-23 17:57 | 58.88709 | 5.63412 | 43 ft | 20 kts | 178° |
| 2026-04-23 17:58 | 58.88547 | 5.63416 | 52 ft | 25 kts | 180° |
| 2026-04-23 17:58 | 58.88360 | 5.63424 | 60 ft | 29 kts | 183° |
| 2026-04-23 17:58 | 58.88146 | 5.63427 | 62 ft | 32 kts | 176° |
| 2026-04-23 17:58 | 58.88008 | 5.63411 | 71 ft | 14 kts | 200° |
| 2026-04-23 17:59 | 58.87953 | 5.63297 | 66 ft | 15 kts | 286° |
| 2026-04-23 17:59 | 58.87990 | 5.63042 | 63 ft | 22 kts | 279° |
| 2026-04-23 17:59 | 58.88004 | 5.62731 | 52 ft | 20 kts | 281° |
| 2026-04-23 17:59 | 58.88000 | 5.62558 | 48 ft | 12 kts | 215° |
| 2026-04-23 18:00 | 58.87929 | 5.62500 | 33 ft | 10 kts | 186° |
| 2026-04-23 18:00 | 58.87873 | 5.62497 | 40 ft | 3 kts | 106° |
| 2026-04-23 18:00 | 58.87871 | 5.62504 | 50 ft | 0 kts | 101° |
| 2026-04-23 18:00 | 58.87868 | 5.62505 | 50 ft | 0 kts | 92° |
| 2026-04-23 18:01 | 58.87864 | 5.62543 | 52 ft | 17 kts | 115° |
| 2026-04-23 18:01 | 58.87780 | 5.63096 | 66 ft | 62 kts | 105° |
| 2026-04-23 18:01 | 58.87649 | 5.63951 | 314 ft | 63 kts | 99° |
| 2026-04-23 18:01 | 58.87478 | 5.64651 | 691 ft | 58 kts | 183° |
| 2026-04-23 18:02 | 58.87086 | 5.64253 | 712 ft | 94 kts | 241° |
| 2026-04-23 18:02 | 58.86610 | 5.63099 | 722 ft | 120 kts | 242° |
| 2026-04-23 18:02 | 58.86095 | 5.61759 | 812 ft | 127 kts | 242° |
| 2026-04-23 18:02 | 58.85554 | 5.60385 | 895 ft | 132 kts | 234° |
| 2026-04-23 18:03 | 58.84859 | 5.59101 | 961 ft | 144 kts | 223° |
| 2026-04-23 18:03 | 58.84009 | 5.57974 | 1058 ft | 151 kts | 210° |
| 2026-04-23 18:03 | 58.83109 | 5.57176 | 1281 ft | 135 kts | 198° |
| 2026-04-23 18:03 | 58.82220 | 5.56775 | 1395 ft | 129 kts | 182° |
| 2026-04-23 18:04 | 58.81339 | 5.56716 | 1430 ft | 126 kts | 173° |
| 2026-04-23 18:04 | 58.80485 | 5.56333 | 1454 ft | 125 kts | 200° |
| 2026-04-23 18:04 | 58.79680 | 5.55730 | 1477 ft | 122 kts | 202° |
| 2026-04-23 18:04 | 58.78901 | 5.55115 | 1482 ft | 120 kts | 202° |
| 2026-04-23 18:05 | 58.78087 | 5.54471 | 1488 ft | 132 kts | 202° |
| 2026-04-23 18:05 | 58.77206 | 5.53766 | 1477 ft | 142 kts | 203° |
| 2026-04-23 18:05 | 58.76253 | 5.52987 | 1484 ft | 152 kts | 203° |
| 2026-04-23 18:05 | 58.75275 | 5.52222 | 1487 ft | 153 kts | 200° |
| 2026-04-23 18:06 | 58.74253 | 5.51691 | 1485 ft | 153 kts | 180° |
| 2026-04-23 18:06 | 58.73176 | 5.51815 | 1489 ft | 155 kts | 165° |
| 2026-04-23 18:06 | 58.72062 | 5.52099 | 1490 ft | 166 kts | 163° |
| 2026-04-23 18:06 | 58.70916 | 5.52397 | 1500 ft | 167 kts | 164° |
| 2026-04-23 18:07 | 58.69759 | 5.52723 | 1518 ft | 168 kts | 158° |
| 2026-04-23 18:07 | 58.68686 | 5.53525 | 1499 ft | 165 kts | 139° |
| 2026-04-23 18:07 | 58.67673 | 5.54631 | 1503 ft | 169 kts | 135° |
| 2026-04-23 18:07 | 58.66657 | 5.55774 | 1505 ft | 169 kts | 135° |
| 2026-04-23 18:08 | 58.65984 | 5.56532 | 1505 ft | 170 kts | 135° |
| 2026-04-23 18:08 | 58.64622 | 5.58077 | 1507 ft | 169 kts | 135° |
| 2026-04-23 18:08 | 58.63615 | 5.59216 | 1505 ft | 168 kts | 135° |
| 2026-04-23 18:08 | 58.62603 | 5.60352 | 1506 ft | 169 kts | 135° |
| 2026-04-23 18:09 | 58.61595 | 5.61494 | 1509 ft | 168 kts | 135° |
| 2026-04-23 18:09 | 58.60585 | 5.62646 | 1507 ft | 170 kts | 135° |
| 2026-04-23 18:09 | 58.59570 | 5.63820 | 1507 ft | 171 kts | 135° |
| 2026-04-23 18:09 | 58.58547 | 5.65020 | 1507 ft | 174 kts | 135° |
| 2026-04-23 18:10 | 58.57518 | 5.66236 | 1504 ft | 174 kts | 135° |
| 2026-04-23 18:10 | 58.56488 | 5.67459 | 1505 ft | 174 kts | 135° |
| 2026-04-23 18:10 | 58.55461 | 5.68672 | 1592 ft | 171 kts | 135° |
| 2026-04-23 18:10 | 58.54455 | 5.69819 | 1723 ft | 167 kts | 135° |
| 2026-04-23 18:11 | 58.53486 | 5.70966 | 1854 ft | 160 kts | 124° |
| 2026-04-23 18:11 | 58.52657 | 5.72361 | 1990 ft | 157 kts | 118° |
| 2026-04-23 18:11 | 58.51860 | 5.73773 | 2126 ft | 155 kts | 117° |
| 2026-04-23 18:11 | 58.51105 | 5.75213 | 2227 ft | 151 kts | 111° |
| 2026-04-23 18:12 | 58.50415 | 5.76721 | 2358 ft | 150 kts | 110° |
| 2026-04-23 18:12 | 58.49745 | 5.78245 | 2488 ft | 148 kts | 109° |
| 2026-04-23 18:12 | 58.49217 | 5.79893 | 2614 ft | 145 kts | 96° |
| 2026-04-23 18:12 | 58.48763 | 5.81594 | 2773 ft | 141 kts | 92° |
| 2026-04-23 18:13 | 58.48284 | 5.83277 | 2885 ft | 153 kts | 112° |
| 2026-04-23 18:13 | 58.47569 | 5.84773 | 2939 ft | 154 kts | 111° |
| 2026-04-23 18:13 | 58.46877 | 5.86380 | 2958 ft | 159 kts | 110° |
| 2026-04-23 18:13 | 58.46170 | 5.88067 | 2967 ft | 161 kts | 110° |
| 2026-04-23 18:14 | 58.45468 | 5.89740 | 2974 ft | 162 kts | 109° |
| 2026-04-23 18:14 | 58.44767 | 5.91393 | 2968 ft | 162 kts | 110° |
| 2026-04-23 18:14 | 58.44060 | 5.93065 | 2968 ft | 162 kts | 110° |
| 2026-04-23 18:14 | 58.43349 | 5.94740 | 2957 ft | 162 kts | 110° |
| 2026-04-23 18:15 | 58.42634 | 5.96408 | 2972 ft | 162 kts | 110° |
| 2026-04-23 18:15 | 58.41917 | 5.98085 | 2971 ft | 162 kts | 110° |
| 2026-04-23 18:15 | 58.41207 | 5.99767 | 2970 ft | 163 kts | 109° |
| 2026-04-23 18:15 | 58.40492 | 6.01447 | 2973 ft | 163 kts | 110° |
| 2026-04-23 18:16 | 58.39788 | 6.03113 | 2973 ft | 160 kts | 110° |
| 2026-04-23 18:16 | 58.39089 | 6.04770 | 2972 ft | 161 kts | 109° |
| 2026-04-23 18:16 | 58.38384 | 6.06421 | 2968 ft | 160 kts | 111° |
| 2026-04-23 18:17 | 58.36971 | 6.09702 | 2974 ft | 161 kts | 110° |
| 2026-04-23 18:17 | 58.36265 | 6.11360 | 2979 ft | 159 kts | 108° |
| 2026-04-23 18:17 | 58.35613 | 6.13062 | 2980 ft | 159 kts | 106° |
| 2026-04-23 18:17 | 58.34981 | 6.14759 | 2975 ft | 155 kts | 105° |
| 2026-04-23 18:18 | 58.34359 | 6.16406 | 2978 ft | 150 kts | 106° |
| 2026-04-23 18:18 | 58.33809 | 6.18036 | 2981 ft | 142 kts | 97° |
| 2026-04-23 18:18 | 58.33371 | 6.19737 | 3005 ft | 144 kts | 94° |
| 2026-04-23 18:18 | 58.32954 | 6.21485 | 2966 ft | 147 kts | 94° |
| 2026-04-23 18:19 | 58.32537 | 6.23266 | 2941 ft | 150 kts | 92° |
| 2026-04-23 18:19 | 58.32068 | 6.25145 | 2948 ft | 159 kts | 94° |
| 2026-04-23 18:19 | 58.31584 | 6.27033 | 2944 ft | 158 kts | 94° |
| 2026-04-23 18:19 | 58.31100 | 6.28914 | 2942 ft | 158 kts | 94° |
| 2026-04-23 18:20 | 58.30620 | 6.30781 | 2945 ft | 157 kts | 94° |
| 2026-04-23 18:20 | 58.30147 | 6.32618 | 2947 ft | 156 kts | 94° |
| 2026-04-23 18:20 | 58.29671 | 6.34470 | 2938 ft | 156 kts | 94° |
| 2026-04-23 18:20 | 58.29197 | 6.36319 | 2937 ft | 155 kts | 94° |
| 2026-04-23 18:21 | 58.28722 | 6.38166 | 2933 ft | 156 kts | 95° |
| 2026-04-23 18:21 | 58.28248 | 6.40005 | 2941 ft | 155 kts | 94° |
| 2026-04-23 18:21 | 58.27772 | 6.41856 | 2937 ft | 156 kts | 94° |
| 2026-04-23 18:21 | 58.27295 | 6.43708 | 2941 ft | 156 kts | 94° |
| 2026-04-23 18:22 | 58.26817 | 6.45559 | 2914 ft | 156 kts | 94° |
| 2026-04-23 18:22 | 58.26338 | 6.47405 | 2842 ft | 156 kts | 93° |
| 2026-04-23 18:22 | 58.25858 | 6.49249 | 2710 ft | 155 kts | 93° |
| 2026-04-23 18:22 | 58.25395 | 6.51047 | 2577 ft | 148 kts | 93° |
| 2026-04-23 18:23 | 58.25091 | 6.52255 | 2506 ft | 149 kts | 93° |
| 2026-04-23 18:23 | 58.24108 | 6.56072 | 2221 ft | 123 kts | 84° |
| 2026-04-23 18:24 | 58.23633 | 6.59139 | 1953 ft | 117 kts | 73° |
| 2026-04-23 18:24 | 58.23455 | 6.60616 | 1825 ft | 112 kts | 66° |
| 2026-04-23 18:24 | 58.23403 | 6.62084 | 1696 ft | 111 kts | 61° |
| 2026-04-23 18:25 | 58.23669 | 6.64965 | 1343 ft | 109 kts | 49° |
| 2026-04-23 18:25 | 58.23952 | 6.66344 | 1216 ft | 115 kts | 49° |
| 2026-04-23 18:25 | 58.24129 | 6.67300 | 1237 ft | 112 kts | 51° |
| 2026-04-23 18:25 | 58.24334 | 6.68696 | 1246 ft | 107 kts | 56° |
| 2026-04-23 18:26 | 58.24472 | 6.69958 | 1291 ft | 92 kts | 57° |
| 2026-04-23 18:26 | 58.24549 | 6.70981 | 1433 ft | 64 kts | 34° |
| 2026-04-23 18:26 | 58.24699 | 6.71454 | 1440 ft | 24 kts | 3° |
| 2026-04-23 18:26 | 58.24779 | 6.71696 | 1439 ft | 15 kts | 356° |
| 2026-04-23 18:27 | 58.24867 | 6.71738 | 1358 ft | 11 kts | 344° |
| 2026-04-23 18:27 | 58.24945 | 6.71782 | 1186 ft | 15 kts | 352° |
| 2026-04-23 18:27 | 58.25012 | 6.71803 | 1053 ft | 5 kts | 341° |
| 2026-04-23 18:27 | 58.25052 | 6.71807 | 983 ft | 5 kts | 337° |
| 2026-04-23 18:28 | 58.25077 | 6.71800 | 999 ft | 4 kts | 335° |
| 2026-04-23 18:28 | 58.25080 | 6.71790 | 986 ft | 2 kts | 341° |
| 2026-04-23 18:28 | 58.25065 | 6.71764 | 1060 ft | 3 kts | 343° |
| 2026-04-23 18:28 | 58.25082 | 6.71852 | 992 ft | 2 kts | 338° |
| 2026-04-23 18:29 | 58.25091 | 6.71847 | 982 ft | 0 kts | 333° |
| 2026-04-23 18:29 | 58.25091 | 6.71848 | 997 ft | 2 kts | 331° |
| 2026-04-23 18:29 | 58.25086 | 6.71808 | 1002 ft | 2 kts | 323° |
| 2026-04-23 18:30 | 58.25080 | 6.71798 | 947 ft | 0 kts | 337° |
| 2026-04-23 18:30 | 58.25083 | 6.71794 | 947 ft | 0 kts | 338° |
| 2026-04-23 18:49 | 58.25076 | 6.71794 | 973 ft | 1 kts | 338° |
| 2026-04-23 18:49 | 58.25186 | 6.71693 | 1151 ft | 40 kts | 343° |
| 2026-04-23 18:49 | 58.25554 | 6.71867 | 1300 ft | 69 kts | 14° |
| 2026-04-23 18:49 | 58.26006 | 6.72442 | 1336 ft | 86 kts | 20° |
| 2026-04-23 18:50 | 58.26311 | 6.72980 | 1389 ft | 95 kts | 28° |
| 2026-04-23 18:50 | 58.26836 | 6.74379 | 1545 ft | 100 kts | 40° |
| 2026-04-23 18:50 | 58.27241 | 6.75330 | 1631 ft | 86 kts | 14° |
| 2026-04-23 18:50 | 58.27763 | 6.75433 | 1745 ft | 70 kts | 338° |
| 2026-04-23 18:51 | 58.28101 | 6.74677 | 1847 ft | 83 kts | 309° |
| 2026-04-23 18:51 | 58.28352 | 6.73664 | 1954 ft | 85 kts | 311° |
| 2026-04-23 18:51 | 58.28594 | 6.72663 | 2050 ft | 84 kts | 313° |
| 2026-04-23 18:51 | 58.28839 | 6.71656 | 2160 ft | 86 kts | 308° |
| 2026-04-23 18:52 | 58.29090 | 6.70618 | 2251 ft | 87 kts | 307° |
| 2026-04-23 18:52 | 58.29346 | 6.69570 | 2366 ft | 87 kts | 306° |
| 2026-04-23 18:52 | 58.29622 | 6.68568 | 2483 ft | 84 kts | 310° |
| 2026-04-23 18:52 | 58.29929 | 6.67641 | 2591 ft | 82 kts | 313° |
| 2026-04-23 18:53 | 58.30259 | 6.66780 | 2742 ft | 80 kts | 316° |
| 2026-04-23 18:53 | 58.30587 | 6.65896 | 2841 ft | 85 kts | 310° |
| 2026-04-23 18:53 | 58.30924 | 6.64879 | 2883 ft | 93 kts | 308° |
| 2026-04-23 18:53 | 58.31256 | 6.63869 | 2900 ft | 89 kts | 311° |
| 2026-04-23 18:54 | 58.31772 | 6.63290 | 2912 ft | 86 kts | 341° |
| 2026-04-23 18:54 | 58.32347 | 6.63039 | 2919 ft | 85 kts | 342° |
| 2026-04-23 18:54 | 58.32924 | 6.62791 | 2915 ft | 85 kts | 342° |
| 2026-04-23 18:54 | 58.33515 | 6.62543 | 2896 ft | 96 kts | 344° |
| 2026-04-23 18:55 | 58.34211 | 6.62267 | 2913 ft | 103 kts | 343° |
| 2026-04-23 18:55 | 58.34927 | 6.61976 | 2912 ft | 109 kts | 343° |
| 2026-04-23 18:55 | 58.35683 | 6.61668 | 2916 ft | 113 kts | 342° |
| 2026-04-23 18:55 | 58.36446 | 6.61356 | 2916 ft | 112 kts | 343° |
| 2026-04-23 18:56 | 58.36957 | 6.61148 | 2918 ft | 110 kts | 343° |
| 2026-04-23 18:56 | 58.37939 | 6.60749 | 2917 ft | 108 kts | 344° |
| 2026-04-23 18:56 | 58.38683 | 6.60448 | 2918 ft | 108 kts | 345° |
| 2026-04-23 18:56 | 58.39406 | 6.60155 | 2918 ft | 107 kts | 345° |
| 2026-04-23 18:57 | 58.40145 | 6.59855 | 2917 ft | 107 kts | 345° |
| 2026-04-23 18:57 | 58.40864 | 6.59564 | 2917 ft | 107 kts | 344° |
| 2026-04-23 18:57 | 58.41594 | 6.59268 | 2918 ft | 107 kts | 344° |
| 2026-04-23 18:57 | 58.42327 | 6.58969 | 2926 ft | 109 kts | 344° |
| 2026-04-23 18:58 | 58.43073 | 6.58664 | 2923 ft | 110 kts | 344° |
| 2026-04-23 18:58 | 58.43825 | 6.58357 | 2923 ft | 111 kts | 343° |
| 2026-04-23 18:58 | 58.44580 | 6.58047 | 2925 ft | 112 kts | 341° |
| 2026-04-23 18:58 | 58.45353 | 6.57723 | 2921 ft | 115 kts | 342° |
| 2026-04-23 18:59 | 58.46124 | 6.57327 | 2924 ft | 115 kts | 338° |
| 2026-04-23 18:59 | 58.46866 | 6.56787 | 2924 ft | 114 kts | 334° |
| 2026-04-23 18:59 | 58.47578 | 6.56124 | 2926 ft | 114 kts | 330° |
| 2026-04-23 18:59 | 58.48268 | 6.55365 | 2926 ft | 114 kts | 328° |
| 2026-04-23 19:00 | 58.48934 | 6.54539 | 2926 ft | 114 kts | 325° |
| 2026-04-23 19:00 | 58.49578 | 6.53668 | 2927 ft | 114 kts | 324° |
| 2026-04-23 19:00 | 58.50213 | 6.52751 | 2927 ft | 115 kts | 323° |
| 2026-04-23 19:00 | 58.50846 | 6.51794 | 2929 ft | 116 kts | 322° |
| 2026-04-23 19:01 | 58.51458 | 6.50832 | 2928 ft | 115 kts | 321° |
| 2026-04-23 19:01 | 58.52065 | 6.49855 | 2954 ft | 114 kts | 321° |
| 2026-04-23 19:01 | 58.52663 | 6.48873 | 2954 ft | 114 kts | 321° |
| 2026-04-23 19:01 | 58.53269 | 6.47860 | 2953 ft | 117 kts | 320° |
| 2026-04-23 19:02 | 58.53680 | 6.47162 | 2952 ft | 116 kts | 320° |
| 2026-04-23 19:02 | 58.54467 | 6.45815 | 2961 ft | 113 kts | 320° |
| 2026-04-23 19:02 | 58.55051 | 6.44814 | 2961 ft | 113 kts | 320° |
| 2026-04-23 19:02 | 58.55641 | 6.43796 | 2973 ft | 116 kts | 320° |
| 2026-04-23 19:03 | 58.56251 | 6.42732 | 2964 ft | 117 kts | 319° |
| 2026-04-23 19:03 | 58.56841 | 6.41700 | 2962 ft | 115 kts | 320° |
| 2026-04-23 19:03 | 58.57422 | 6.40685 | 2960 ft | 111 kts | 319° |
| 2026-04-23 19:03 | 58.57978 | 6.39716 | 2958 ft | 105 kts | 320° |
| 2026-04-23 19:04 | 58.58528 | 6.38764 | 2962 ft | 107 kts | 320° |
| 2026-04-23 19:04 | 58.59082 | 6.37787 | 2934 ft | 108 kts | 318° |
| 2026-04-23 19:04 | 58.59617 | 6.36853 | 2957 ft | 106 kts | 319° |
| 2026-04-23 19:04 | 58.60181 | 6.35851 | 2970 ft | 106 kts | 318° |
| 2026-04-23 19:05 | 58.60690 | 6.34954 | 2959 ft | 95 kts | 323° |
| 2026-04-23 19:05 | 58.61207 | 6.34066 | 2965 ft | 102 kts | 321° |
| 2026-04-23 19:05 | 58.61710 | 6.33167 | 2922 ft | 51 kts | 316° |
| 2026-04-23 19:05 | 58.61900 | 6.32783 | 2982 ft | 53 kts | 323° |
| 2026-04-23 19:06 | 58.62243 | 6.32200 | 2968 ft | 75 kts | 320° |
| 2026-04-23 19:06 | 58.62576 | 6.31555 | 3046 ft | 67 kts | 317° |
| 2026-04-23 19:06 | 58.62955 | 6.30875 | 2979 ft | 84 kts | 317° |
| 2026-04-23 19:06 | 58.63349 | 6.30190 | 3052 ft | 80 kts | 321° |
| 2026-04-23 19:07 | 58.63839 | 6.29369 | 3232 ft | 104 kts | 319° |
| 2026-04-23 19:07 | 58.64403 | 6.28393 | 3311 ft | 116 kts | 317° |
| 2026-04-23 19:07 | 58.64981 | 6.27372 | 3339 ft | 109 kts | 322° |
| 2026-04-23 19:07 | 58.65522 | 6.26423 | 3344 ft | 104 kts | 320° |
| 2026-04-23 19:08 | 58.66057 | 6.25486 | 3370 ft | 105 kts | 319° |
| 2026-04-23 19:08 | 58.66594 | 6.24541 | 3384 ft | 104 kts | 319° |
| 2026-04-23 19:08 | 58.67132 | 6.23590 | 3393 ft | 107 kts | 319° |
| 2026-04-23 19:08 | 58.67495 | 6.22946 | 3424 ft | 105 kts | 320° |
| 2026-04-23 19:09 | 58.68039 | 6.21981 | 3413 ft | 111 kts | 317° |
| 2026-04-23 19:09 | 58.68815 | 6.20590 | 3402 ft | 116 kts | 317° |
| 2026-04-23 19:09 | 58.69403 | 6.19533 | 3397 ft | 114 kts | 320° |
| 2026-04-23 19:09 | 58.69966 | 6.18528 | 3392 ft | 107 kts | 320° |
| 2026-04-23 19:10 | 58.70334 | 6.17876 | 3393 ft | 108 kts | 320° |
| 2026-04-23 19:10 | 58.70901 | 6.16871 | 3395 ft | 111 kts | 319° |
| 2026-04-23 19:10 | 58.71460 | 6.15875 | 3391 ft | 107 kts | 323° |
| 2026-04-23 19:10 | 58.71993 | 6.14935 | 3394 ft | 103 kts | 322° |
| 2026-04-23 19:11 | 58.72527 | 6.13994 | 3393 ft | 107 kts | 321° |
| 2026-04-23 19:11 | 58.73076 | 6.13020 | 3411 ft | 104 kts | 322° |
| 2026-04-23 19:11 | 58.73574 | 6.12139 | 3460 ft | 96 kts | 322° |
| 2026-04-23 19:11 | 58.74091 | 6.11228 | 3478 ft | 104 kts | 324° |
| 2026-04-23 19:12 | 58.74607 | 6.10312 | 3485 ft | 100 kts | 326° |
| 2026-04-23 19:12 | 58.75121 | 6.09404 | 3490 ft | 100 kts | 326° |
| 2026-04-23 19:12 | 58.75626 | 6.08510 | 3492 ft | 97 kts | 326° |
| 2026-04-23 19:12 | 58.76130 | 6.07620 | 3495 ft | 102 kts | 325° |
| 2026-04-23 19:13 | 58.76652 | 6.06691 | 3493 ft | 98 kts | 326° |
| 2026-04-23 19:13 | 58.77158 | 6.05791 | 3499 ft | 99 kts | 326° |
| 2026-04-23 19:13 | 58.77662 | 6.04894 | 3494 ft | 98 kts | 326° |
| 2026-04-23 19:13 | 58.78164 | 6.04000 | 3495 ft | 97 kts | 327° |
| 2026-04-23 19:14 | 58.78659 | 6.03122 | 3498 ft | 100 kts | 326° |
| 2026-04-23 19:14 | 58.79161 | 6.02226 | 3502 ft | 95 kts | 328° |
| 2026-04-23 19:14 | 58.79662 | 6.01338 | 3504 ft | 103 kts | 326° |
| 2026-04-23 19:14 | 58.80176 | 6.00414 | 3496 ft | 98 kts | 327° |
| 2026-04-23 19:15 | 58.80681 | 5.99510 | 3499 ft | 101 kts | 326° |
| 2026-04-23 19:15 | 58.81189 | 5.98597 | 3497 ft | 98 kts | 328° |
| 2026-04-23 19:15 | 58.81679 | 5.97718 | 3505 ft | 95 kts | 327° |
| 2026-04-23 19:15 | 58.82167 | 5.96847 | 3502 ft | 96 kts | 326° |
| 2026-04-23 19:16 | 58.82683 | 5.95922 | 3513 ft | 105 kts | 324° |
| 2026-04-23 19:16 | 58.83198 | 5.94985 | 3500 ft | 99 kts | 325° |
| 2026-04-23 19:16 | 58.83697 | 5.94084 | 3506 ft | 97 kts | 326° |
| 2026-04-23 19:17 | 58.84744 | 5.92197 | 3314 ft | 108 kts | 323° |
| 2026-04-23 19:17 | 58.85301 | 5.91181 | 3186 ft | 112 kts | 322° |
| 2026-04-23 19:17 | 58.85865 | 5.90148 | 3056 ft | 110 kts | 324° |
| 2026-04-23 19:17 | 58.86419 | 5.89139 | 2930 ft | 112 kts | 322° |
| 2026-04-23 19:18 | 58.87008 | 5.88067 | 2806 ft | 116 kts | 322° |
| 2026-04-23 19:18 | 58.87582 | 5.87012 | 2662 ft | 111 kts | 323° |
| 2026-04-23 19:18 | 58.88146 | 5.85990 | 2543 ft | 111 kts | 323° |
| 2026-04-23 19:18 | 58.88707 | 5.84972 | 2413 ft | 110 kts | 325° |
| 2026-04-23 19:19 | 58.89810 | 5.82982 | 2155 ft | 110 kts | 324° |
| 2026-04-23 19:19 | 58.90381 | 5.81956 | 2020 ft | 113 kts | 322° |
| 2026-04-23 19:20 | 58.91526 | 5.79874 | 1734 ft | 108 kts | 322° |
| 2026-04-23 19:20 | 58.92064 | 5.78905 | 1620 ft | 104 kts | 323° |
| 2026-04-23 19:20 | 58.92609 | 5.77935 | 1558 ft | 109 kts | 322° |
| 2026-04-23 19:20 | 58.93099 | 5.77093 | 1339 ft | 82 kts | 324° |
| 2026-04-23 19:21 | 58.93476 | 5.76437 | 997 ft | 66 kts | 317° |
| 2026-04-23 19:21 | 58.93968 | 5.75422 | 559 ft | 40 kts | 309° |
| 2026-04-23 19:21 | 58.94163 | 5.75121 | 514 ft | 36 kts | 310° |
| 2026-04-23 19:22 | 58.94367 | 5.74790 | 432 ft | 39 kts | 312° |
| 2026-04-23 19:22 | 58.94558 | 5.74446 | 373 ft | 36 kts | 308° |
| 2026-04-23 19:22 | 58.94896 | 5.73793 | 319 ft | 32 kts | 307° |
| 2026-04-23 19:23 | 58.95055 | 5.73514 | 278 ft | 30 kts | 309° |
| 2026-04-23 19:23 | 58.95148 | 5.73251 | 201 ft | 19 kts | 300° |
| 2026-04-23 19:23 | 58.95196 | 5.73119 | 204 ft | 7 kts | 298° |
| 2026-04-23 19:24 | 58.95203 | 5.73097 | 125 ft | 0 kts | 301° |